CYOO

Oshawa Airport

Oshawa, , Canada
METAR CYOO 162200Z AUTO 31014G19KT 9SM CLR M09/M16 A3021 RMK SLP241
Observed Flight Rules
Jan-16 @ 22:00 UTC (30 minutes ago) Visual Flight Rules
Wind Visibility Clouds
310° at 14 knots
 Gusting to 19 knots
9 miles
  • Clear skies
Temperatures Readings
Current -9°C / 16°F
Dewpoint -16°C / 3°F
Humidity 57%
Altimeter 30.21" Hg
Pressure 1024.1 hPa
Elevation 139
METAR CYOO 162200Z AUTO 31014G19KT 9SM CLR M09/M16 A3021 RMK SLP241
Observed Flight Rules
Jan-16 @ 22:00 UTC
(30 minutes ago)
VFR
Wind Visibility
310° at 14 knots
 Gusting to 19 knots
9 miles
Clouds
  • Clear skies
Temperature Dewpoint
-9°C / 16°F -16°C / 3°F
Humidity Altimeter Pressure
57% 30.21" Hg 1024.1 hPa